Carmen — SMGW — position and weather

sailwx.info

Track history (hours):
 
Tides and Currents Weather Stations Pressure Air Temp Water Temp Dewpoint Dewpoint Depression Visibility Wind Speed Wind Dir Waves Ship Positions

Carmen

Last reported at 2018-Oct-20 06:30 UTC. Time now 2018-Oct-20 07:01 UTC.
Position N 49°29' E 000°10'.

Length 231 m; draft 9.4 m.

Type: Cargo ship. MMSI: 266339000.

Date/timePositionNaut miles runAvg speedWind from/ knotsBaromVisibWave heightAir tempDewpointWater temp
2018-Oct-20 06:30N 49°29' E 000°10'1 1.3
2018-Oct-20 06:03N 49°28' E 000°10'0 5.1
2018-Oct-20 06:00N 49°28' E 000°09'4 7.8
2018-Oct-20 05:30N 49°29' E 000°04'613.9
2018-Oct-20 05:03N 49°31' W 000°06'0 8.1
2018-Oct-20 05:00N 49°32' W 000°06'3 7.0
2018-Oct-20 04:30N 49°32' W 000°11'3 7.7
2018-Oct-20 04:03N 49°33' W 000°17'0 7.5
2018-Oct-20 04:00N 49°33' W 000°17'4 7.3
2018-Oct-20 03:30N 49°36' W 000°21'4 7.8
2018-Oct-20 03:03N 49°39' W 000°23'0 7.7
2018-Oct-20 03:00N 49°39' W 000°24'4 7.4
2018-Oct-20 02:30N 49°43' W 000°26'3 7.3
2018-Oct-20 02:03N 49°46' W 000°28'0 7.5
2018-Oct-20 02:00N 49°46' W 000°28'4 7.4
2018-Oct-20 01:26N 49°50' W 000°31'3 6.5
2018-Oct-20 00:57N 49°53' W 000°32'5 7.7
2018-Oct-20 00:15N 49°57' W 000°26'5 9.3
2018-Oct-19 23:43N 50°01' W 000°22'416.6
2018-Oct-19 23:29N 50°05' W 000°19'816.5
2018-Oct-19 23:01N 50°12' W 000°14'016.8
2018-Oct-19 22:59N 50°12' W 000°13'916.3
2018-Oct-19 22:27N 50°20' W 000°08'616.1
2018-Oct-19 22:03N 50°26' W 000°04'116.5
2018-Oct-19 21:58N 50°27' W 000°02'816.4
2018-Oct-19 21:30N 50°30' E 000°09'816.2
2018-Oct-19 21:02N 50°32' E 000°20'015.7
2018-Oct-19 21:00N 50°32' E 000°21'815.9
2018-Oct-19 20:31N 50°34' E 000°33'715.3
2018-Oct-19 20:04N 50°38' E 000°43'115.4
2018-Oct-19 20:01N 50°38' E 000°44'815.2
2018-Oct-19 19:30N 50°43' E 000°53'714.9
2018-Oct-19 19:03N 50°46' E 001°02'114.9
2018-Oct-19 19:00N 50°47' E 001°03'714.9
2018-Oct-19 18:30N 50°51' E 001°13'715.1
2018-Oct-19 18:03N 50°56' E 001°20'115.2
2018-Oct-19 18:00N 50°57' E 001°21'815.7
2018-Oct-19 17:31N 51°02' E 001°29'716.2
2018-Oct-19 17:04N 51°07' E 001°38'116.4
2018-Oct-19 17:01N 51°08' E 001°39'816.7
2018-Oct-19 16:31N 51°14' E 001°48'816.7
2018-Oct-19 16:04N 51°20' E 001°54'116.8
2018-Oct-19 16:01N 51°21' E 001°55'713.2
2018-Oct-19 15:30N 51°24' E 002°04'715.8
2018-Oct-19 15:04N 51°21' E 002°14'115.8
2018-Oct-19 15:00N 51°21' E 002°15'815.9
2018-Oct-19 14:30N 51°22' E 002°28'1414.0
2018-Oct-19 13:30N 51°25' E 002°50'816.7
2018-Oct-19 13:03N 51°25' E 003°02'116.7
2018-Oct-19 13:00N 51°25' E 003°03'713.6
2018-Oct-19 12:30N 51°21' E 003°12'1 2.5
2018-Oct-19 12:03N 51°20' E 003°13'0 0.0
2018-Oct-19 12:00N 51°20' E 003°13'0 0.0
2018-Oct-19 11:30N 51°20' E 003°13'1 2.4
2018-Oct-19 10:58N 51°19' E 003°14'0 0.0
2018-Oct-19 10:28N 51°19' E 003°14'0 0.0
2018-Oct-19 09:49N 51°19' E 003°14'0 0.0
2018-Oct-19 09:28N 51°19' E 003°14'0 0.0
2018-Oct-19 08:25N 51°19' E 003°14'0 0.0
2018-Oct-19 07:58N 51°19' E 003°14'0 0.0
2018-Oct-19 07:28N 51°19' E 003°14'0 0.0
2018-Oct-19 07:01N 51°19' E 003°14'0 0.0
2018-Oct-19 06:58N 51°19' E 003°14'0 0.0
2018-Oct-19 06:25N 51°19' E 003°14'0 0.0
2018-Oct-19 05:52N 51°19' E 003°14'0 0.0
2018-Oct-19 05:28N 51°19' E 003°14'0 0.0
2018-Oct-19 04:58N 51°19' E 003°14'0 0.0
2018-Oct-19 04:22N 51°19' E 003°14'0 0.0
2018-Oct-19 03:55N 51°19' E 003°14'0 0.0
2018-Oct-19 03:10N 51°19' E 003°14'0 0.0
2018-Oct-19 03:01N 51°19' E 003°14'0 0.0
2018-Oct-19 02:58N 51°19' E 003°14'0 0.0
2018-Oct-19 02:28N 51°19' E 003°14'0 0.0
2018-Oct-19 01:58N 51°19' E 003°14'0 0.0
2018-Oct-19 01:25N 51°19' E 003°14'0 0.0
2018-Oct-19 00:55N 51°19' E 003°14'0 0.0
2018-Oct-19 00:28N 51°19' E 003°14'0 0.0
2018-Oct-18 23:58N 51°19' E 003°14'0 0.0
2018-Oct-18 23:19N 51°19' E 003°14'0 0.0
2018-Oct-18 22:49N 51°19' E 003°14'0 0.0
2018-Oct-18 22:25N 51°19' E 003°14'0 0.0
2018-Oct-18 21:58N 51°19' E 003°14'0 0.0
2018-Oct-18 21:28N 51°19' E 003°14'0 0.0
2018-Oct-18 20:58N 51°19' E 003°14'0 0.0
2018-Oct-18 20:22N 51°19' E 003°14'0 0.0
2018-Oct-18 20:01N 51°19' E 003°14'0 0.0
2018-Oct-18 19:55N 51°19' E 003°14'0 0.0
2018-Oct-18 19:28N 51°19' E 003°14'0 0.0
2018-Oct-18 19:01N 51°19' E 003°14'0 0.0
2018-Oct-18 18:55N 51°19' E 003°14'0 0.0
2018-Oct-18 18:22N 51°19' E 003°14'0 0.0
2018-Oct-18 18:01N 51°19' E 003°14'0 0.0
2018-Oct-18 17:58N 51°19' E 003°14'0 0.0
2018-Oct-18 17:28N 51°19' E 003°14'0 0.0
2018-Oct-18 16:52N 51°19' E 003°14'0 0.0
2018-Oct-18 16:19N 51°19' E 003°14'0 0.0
2018-Oct-18 16:01N 51°19' E 003°14'0 0.0
2018-Oct-18 15:58N 51°19' E 003°14'0 0.0
2018-Oct-18 15:28N 51°19' E 003°14'0 0.0
2018-Oct-18 14:55N 51°19' E 003°14'0 0.0
2018-Oct-18 13:58N 51°19' E 003°14'0 0.0
2018-Oct-18 13:28N 51°19' E 003°14'0 0.0
2018-Oct-18 12:58N 51°19' E 003°14'0 0.0
2018-Oct-18 12:28N 51°19' E 003°14'0 0.0
2018-Oct-18 12:01N 51°19' E 003°14'0 0.0
2018-Oct-18 11:58N 51°19' E 003°14'0 0.0
2018-Oct-18 11:28N 51°19' E 003°14'0 0.0
2018-Oct-18 10:58N 51°19' E 003°14'0 0.0
2018-Oct-18 10:28N 51°19' E 003°14'0 0.0
2018-Oct-18 10:01N 51°19' E 003°14'0 0.0
2018-Oct-18 09:58N 51°19' E 003°14'0 0.0
2018-Oct-18 09:28N 51°19' E 003°14'0 0.0
2018-Oct-18 09:01N 51°19' E 003°14'0 0.0
2018-Oct-18 08:58N 51°19' E 003°14'0 0.0
2018-Oct-18 08:28N 51°19' E 003°14'0 0.0
2018-Oct-18 08:01N 51°19' E 003°14'0 0.0
2018-Oct-18 07:58N 51°19' E 003°14'0 0.0
2018-Oct-18 07:28N 51°19' E 003°14'0 0.0
2018-Oct-18 07:01N 51°19' E 003°14'0 0.0
2018-Oct-18 06:55N 51°19' E 003°14'0 0.0
2018-Oct-18 06:28N 51°19' E 003°14'0 0.0
2018-Oct-18 06:01N 51°19' E 003°14'0 0.0
2018-Oct-18 05:58N 51°19' E 003°14'0 0.0
2018-Oct-18 05:28N 51°19' E 003°14'0 0.0
2018-Oct-18 05:01N 51°19' E 003°14'0 0.0
2018-Oct-18 04:58N 51°19' E 003°14'0 0.0
2018-Oct-18 04:28N 51°19' E 003°14'0 0.0
2018-Oct-18 03:58N 51°19' E 003°14'0 0.0
2018-Oct-18 03:28N 51°19' E 003°14'0 0.0
2018-Oct-18 03:01N 51°19' E 003°14'0 0.0
2018-Oct-18 02:58N 51°19' E 003°14'0 0.0
2018-Oct-18 02:28N 51°19' E 003°14'0 0.0
2018-Oct-18 02:01N 51°19' E 003°14'0 0.0
2018-Oct-18 01:58N 51°19' E 003°14'0 0.0
2018-Oct-18 01:25N 51°19' E 003°14'0 0.0
2018-Oct-18 01:01N 51°19' E 003°14'0 0.0
2018-Oct-18 00:58N 51°19' E 003°14'0 0.0
2018-Oct-18 00:28N 51°19' E 003°14'0 0.0
2018-Oct-17 23:58N 51°19' E 003°14'0 0.0
2018-Oct-17 23:25N 51°19' E 003°14'0 0.0
2018-Oct-17 23:01N 51°19' E 003°14'0 0.0
2018-Oct-17 22:58N 51°19' E 003°14'0 0.0
2018-Oct-17 22:25N 51°19' E 003°14'0 0.0
2018-Oct-17 22:01N 51°19' E 003°14'0 0.0
2018-Oct-17 21:58N 51°19' E 003°14'0 0.0
2018-Oct-17 21:28N 51°19' E 003°14'0 0.0
2018-Oct-17 21:01N 51°19' E 003°14'0 0.0
2018-Oct-17 20:55N 51°19' E 003°14'0 0.0
2018-Oct-17 20:25N 51°19' E 003°14'0 0.0
2018-Oct-17 20:01N 51°19' E 003°14'0 0.0
2018-Oct-17 19:58N 51°19' E 003°14'0 0.0
2018-Oct-17 19:28N 51°19' E 003°14'0 0.0
2018-Oct-17 19:01N 51°19' E 003°14'0 0.0
2018-Oct-17 18:58N 51°19' E 003°14'0 0.0
2018-Oct-17 18:28N 51°19' E 003°14'0 0.0
2018-Oct-17 18:01N 51°19' E 003°14'0 0.0
2018-Oct-17 17:58N 51°19' E 003°14'0 0.0
2018-Oct-17 17:28N 51°19' E 003°14'0 0.0
2018-Oct-17 17:01N 51°19' E 003°14'0 0.0
2018-Oct-17 16:55N 51°19' E 003°14'0 0.0
2018-Oct-17 16:25N 51°19' E 003°14'0 0.0
2018-Oct-17 16:01N 51°19' E 003°14'0 0.0
2018-Oct-17 15:58N 51°19' E 003°14'0 0.0
2018-Oct-17 15:25N 51°19' E 003°14'0 0.7
2018-Oct-17 15:03N 51°19' E 003°13'0 0.4
2018-Oct-17 15:00N 51°19' E 003°13'1 2.2
2018-Oct-17 14:30N 51°20' E 003°13'4 3.9
2018-Oct-17 13:31N 51°23' E 003°09'715.1
2018-Oct-17 13:03N 51°23' E 002°58'117.4
2018-Oct-17 13:01N 51°23' E 002°57'816.2
2018-Oct-17 12:30N 51°21' E 002°44'510.5
2018-Oct-17 12:03N 51°22' E 002°37'110.3
2018-Oct-17 11:59N 51°22' E 002°36'3 6.7
2018-Oct-17 11:30N 51°24' E 002°31'4 8.2
2018-Oct-17 11:03N 51°27' E 002°33'1 8.3
2018-Oct-17 10:58N 51°27' E 002°34'5 9.3
2018-Oct-17 10:26N 51°32' E 002°37'4 9.1
2018-Oct-17 10:02N 51°36' E 002°39'0 9.4
2018-Oct-17 09:59N 51°36' E 002°39'4 8.7
2018-Oct-17 09:31N 51°40' E 002°39'611.1
2018-Oct-17 09:00N 51°46' E 002°37'916.1
2018-Oct-17 08:28N 51°54' E 002°40'917.2
2018-Oct-17 07:55N 52°02' E 002°49'1417.1
2018-Oct-17 07:06N 52°13' E 003°03'117.1
2018-Oct-17 07:03N 52°13' E 003°03'216.9
2018-Oct-17 06:57N 52°15' E 003°05'1116.9
2018-Oct-17 06:18N 52°24' E 003°16'816.7
2018-Oct-17 05:51N 52°30' E 003°23'616.6
2018-Oct-17 05:30N 52°34' E 003°29'816.6
2018-Oct-17 05:03N 52°40' E 003°37'116.6
2018-Oct-17 04:59N 52°41' E 003°38'1316.7
2018-Oct-17 04:13N 52°51' E 003°51'416.9
2018-Oct-17 04:00N 52°54' E 003°55'916.9
2018-Oct-17 03:30N 52°60' E 004°05'817.4
2018-Oct-17 03:03N 53°05' E 004°14'118.2
2018-Oct-17 03:00N 53°06' E 004°15'917.5
2018-Oct-17 02:30N 53°12' E 004°25'817.3
2018-Oct-17 02:03N 53°19' E 004°30'117.1
2018-Oct-17 02:00N 53°20' E 004°30'816.8
2018-Oct-17 01:30N 53°28' E 004°37'716.3
2018-Oct-17 01:03N 53°31' E 004°47'116.4
2018-Oct-17 01:00N 53°32' E 004°49'816.1
2018-Oct-17 00:30N 53°34' E 005°02'715.8
2018-Oct-17 00:03N 53°36' E 005°13'115.6
2018-Oct-17 00:00N 53°36' E 005°14'815.5
2018-Oct-16 23:30N 53°38' E 005°27'715.6
2018-Oct-16 23:03N 53°41' E 005°38'115.5
2018-Oct-16 23:00N 53°41' E 005°40'815.4
2018-Oct-16 22:30N 53°43' E 005°52'715.5
2018-Oct-16 22:03N 53°46' E 006°03'115.6
2018-Oct-16 22:00N 53°46' E 006°04'815.8
2018-Oct-16 21:30N 53°49' E 006°17'716.2
2018-Oct-16 21:03N 53°51' E 006°29'116.4
2018-Oct-16 21:00N 53°51' E 006°30'816.6
2018-Oct-16 20:30N 53°53' E 006°44'816.9
2018-Oct-16 20:03N 53°55' E 006°56'116.9
2018-Oct-16 20:00N 53°55' E 006°57'917.0
2018-Oct-16 19:30N 53°57' E 007°12'817.0
2018-Oct-16 19:02N 53°59' E 007°25'017.1
2018-Oct-16 19:00N 53°59' E 007°26'3314.1
2018-Oct-16 16:42N 53°44' E 008°15'416.0
2018-Oct-16 16:26N 53°41' E 008°21'615.3
2018-Oct-16 16:03N 53°38' E 008°28'114.9
2018-Oct-16 16:00N 53°37' E 008°29'4 8.0
2018-Oct-16 15:31N 53°34' E 008°33'0 0.9
2018-Oct-16 15:04N 53°34' E 008°33'0 0.1
2018-Oct-16 15:01N 53°34' E 008°33'1 1.0
2018-Oct-16 14:27N 53°35' E 008°33'0 0.0
2018-Oct-16 14:00N 53°35' E 008°33'0 0.0
2018-Oct-16 13:30N 53°35' E 008°33'0 0.0
2018-Oct-16 13:00N 53°35' E 008°33'0 0.0
2018-Oct-16 12:30N 53°35' E 008°33'0 0.0
2018-Oct-16 12:03N 53°35' E 008°33'0 0.0
2018-Oct-16 11:57N 53°35' E 008°33'0 0.0
2018-Oct-16 11:30N 53°35' E 008°33'0 0.0
2018-Oct-16 11:03N 53°35' E 008°33'0 0.0
2018-Oct-16 11:00N 53°35' E 008°33'0 0.0
2018-Oct-16 10:27N 53°35' E 008°33'0 0.0
2018-Oct-16 10:03N 53°35' E 008°33'0 0.0
2018-Oct-16 10:00N 53°35' E 008°33'0 0.0
2018-Oct-16 09:30N 53°35' E 008°33'0 0.0
2018-Oct-16 09:03N 53°35' E 008°33'0 0.0
2018-Oct-16 09:00N 53°35' E 008°33'0 0.0
2018-Oct-16 08:30N 53°35' E 008°33'0 0.0
2018-Oct-16 08:03N 53°35' E 008°33'0 0.0
2018-Oct-16 08:00N 53°35' E 008°33'0 0.0
2018-Oct-16 07:30N 53°35' E 008°33'0 0.0
2018-Oct-16 07:03N 53°35' E 008°33'0 0.0
2018-Oct-16 07:00N 53°35' E 008°33'0 0.0
2018-Oct-16 06:30N 53°35' E 008°33'0 0.0
2018-Oct-16 06:03N 53°35' E 008°33'0 0.0
2018-Oct-16 06:00N 53°35' E 008°33'0 0.0
2018-Oct-16 05:30N 53°35' E 008°33'0 0.0
2018-Oct-16 05:03N 53°35' E 008°33'0 0.0
2018-Oct-16 05:00N 53°35' E 008°33'0 0.0
2018-Oct-16 04:30N 53°35' E 008°33'0 0.0
2018-Oct-16 04:03N 53°35' E 008°33'0 0.0
2018-Oct-16 04:00N 53°35' E 008°33'0 0.0
2018-Oct-16 03:30N 53°35' E 008°33'0 0.0
2018-Oct-16 03:03N 53°35' E 008°33'0 0.0
2018-Oct-16 03:00N 53°35' E 008°33'0 0.0
2018-Oct-16 02:30N 53°35' E 008°33'0 0.0
2018-Oct-16 02:03N 53°35' E 008°33'0 0.0
2018-Oct-16 02:00N 53°35' E 008°33'0 0.0
2018-Oct-16 01:30N 53°35' E 008°33'0 0.0
2018-Oct-16 01:00N 53°35' E 008°33'0 0.0
2018-Oct-16 00:30N 53°35' E 008°33'0 0.0
2018-Oct-15 23:54N 53°35' E 008°33'0 0.0
2018-Oct-15 23:30N 53°35' E 008°33'0 0.0
2018-Oct-15 23:03N 53°35' E 008°33'0 0.0
2018-Oct-15 23:00N 53°35' E 008°33'0 0.0
2018-Oct-15 22:30N 53°35' E 008°33'0 0.0
2018-Oct-15 22:03N 53°35' E 008°33'0 0.0
2018-Oct-15 22:00N 53°35' E 008°33'0 0.0
2018-Oct-15 21:30N 53°35' E 008°33'0 0.0
2018-Oct-15 21:03N 53°35' E 008°33'0 0.0
2018-Oct-15 21:00N 53°35' E 008°33'0 0.0
2018-Oct-15 20:30N 53°35' E 008°33'0 0.0
2018-Oct-15 20:03N 53°35' E 008°33'0 0.0
2018-Oct-15 20:00N 53°35' E 008°33'0 0.0
2018-Oct-15 19:30N 53°35' E 008°33'0 0.0
2018-Oct-15 19:03N 53°35' E 008°33'0 0.0
2018-Oct-15 18:57N 53°35' E 008°33'0 0.0
2018-Oct-15 18:30N 53°35' E 008°33'0 0.0
2018-Oct-15 18:00N 53°35' E 008°33'0 0.0
2018-Oct-15 17:30N 53°35' E 008°33'0 0.0
2018-Oct-15 17:03N 53°35' E 008°33'0 0.0
2018-Oct-15 16:57N 53°35' E 008°33'0 0.0
2018-Oct-15 16:27N 53°35' E 008°33'0 0.0
2018-Oct-15 16:03N 53°35' E 008°33'0 0.0
2018-Oct-15 16:00N 53°35' E 008°33'0 0.0
2018-Oct-15 15:27N 53°35' E 008°33'0 0.0
2018-Oct-15 15:03N 53°35' E 008°33'0 0.0
2018-Oct-15 15:00N 53°35' E 008°33'0 0.0
2018-Oct-15 14:30N 53°35' E 008°33'0 0.0
2018-Oct-15 13:57N 53°35' E 008°33'0 0.0
2018-Oct-15 13:30N 53°35' E 008°33'0 0.0
2018-Oct-15 13:03N 53°35' E 008°33'0 0.0
2018-Oct-15 13:00N 53°35' E 008°33'0 0.0
2018-Oct-15 12:30N 53°35' E 008°33'0 0.0
2018-Oct-15 12:03N 53°35' E 008°33'0 0.0
2018-Oct-15 11:57N 53°35' E 008°33'0 0.0
2018-Oct-15 11:30N 53°35' E 008°33'0 0.0
2018-Oct-15 11:03N 53°35' E 008°33'0 0.0
2018-Oct-15 11:00N 53°35' E 008°33'0 0.0
2018-Oct-15 10:30N 53°35' E 008°33'0 0.0
2018-Oct-15 10:03N 53°35' E 008°33'0 0.0
2018-Oct-15 10:00N 53°35' E 008°33'0 0.0
2018-Oct-15 09:30N 53°35' E 008°33'0 0.0
2018-Oct-15 09:03N 53°35' E 008°33'0 0.0
2018-Oct-15 09:00N 53°35' E 008°33'0 0.0
2018-Oct-15 08:30N 53°35' E 008°33'0 0.0
2018-Oct-15 08:03N 53°35' E 008°33'0 0.0
2018-Oct-15 07:57N 53°35' E 008°33'0 0.0
2018-Oct-15 07:30N 53°35' E 008°33'0 0.0
2018-Oct-15 07:03N 53°35' E 008°33'0 0.0
2018-Oct-15 07:00N 53°35' E 008°33'0 0.0
2018-Oct-15 06:30N 53°35' E 008°33'0 0.0
2018-Oct-15 06:03N 53°35' E 008°33'0 0.0
2018-Oct-15 06:00N 53°35' E 008°33'0 0.0
2018-Oct-15 05:30N 53°35' E 008°33'0 0.0
2018-Oct-15 05:03N 53°35' E 008°33'0 0.0
2018-Oct-15 05:00N 53°35' E 008°33'0 0.0
2018-Oct-15 04:27N 53°35' E 008°33'0 0.0
2018-Oct-15 04:03N 53°35' E 008°33'0 0.0
2018-Oct-15 04:00N 53°35' E 008°33'0 0.0
2018-Oct-15 03:30N 53°35' E 008°33'0 0.0
2018-Oct-15 03:03N 53°35' E 008°33'0 0.0
2018-Oct-15 03:00N 53°35' E 008°33'0 0.0
2018-Oct-15 02:30N 53°35' E 008°33'0 0.0
2018-Oct-15 02:03N 53°35' E 008°33'0 0.0
2018-Oct-15 02:00N 53°35' E 008°33'0 0.0
2018-Oct-15 01:27N 53°35' E 008°33'0 0.0
2018-Oct-15 01:03N 53°35' E 008°33'0 0.0
2018-Oct-15 01:00N 53°35' E 008°33'0 0.0
2018-Oct-15 00:30N 53°35' E 008°33'0 0.0
2018-Oct-15 00:03N 53°35' E 008°33'0 0.0
2018-Oct-14 23:57N 53°35' E 008°33'0 0.0
2018-Oct-14 23:30N 53°35' E 008°33'0 0.0
2018-Oct-14 23:03N 53°35' E 008°33'0 0.0
2018-Oct-14 23:00N 53°35' E 008°33'0 0.0
2018-Oct-14 22:30N 53°35' E 008°33'0 0.0
2018-Oct-14 22:03N 53°35' E 008°33'0 0.0
2018-Oct-14 22:00N 53°35' E 008°33'0 0.0
2018-Oct-14 21:27N 53°35' E 008°33'0 0.0
2018-Oct-14 21:03N 53°35' E 008°33'0 0.0
2018-Oct-14 20:57N 53°35' E 008°33'0 0.0
2018-Oct-14 20:30N 53°35' E 008°33'0 0.0
2018-Oct-14 20:03N 53°35' E 008°33'0 0.0
2018-Oct-14 20:00N 53°35' E 008°33'0 0.0
2018-Oct-14 19:30N 53°35' E 008°33'0 0.0
2018-Oct-14 19:03N 53°35' E 008°33'0 0.0
2018-Oct-14 19:00N 53°35' E 008°33'0 0.0
2018-Oct-14 18:30N 53°35' E 008°33'0 0.0
2018-Oct-14 18:03N 53°35' E 008°33'0 0.0
2018-Oct-14 18:00N 53°35' E 008°33'0 0.0
2018-Oct-14 17:30N 53°35' E 008°33'0 0.0
2018-Oct-14 17:03N 53°35' E 008°33'0 0.0
2018-Oct-14 17:00N 53°35' E 008°33'0 0.0
2018-Oct-14 16:30N 53°35' E 008°33'0 0.0
2018-Oct-14 16:03N 53°35' E 008°33'0 0.0
2018-Oct-14 16:00N 53°35' E 008°33'0 0.0
2018-Oct-14 15:30N 53°35' E 008°33'0 0.0
2018-Oct-14 15:03N 53°35' E 008°33'0 0.0
2018-Oct-14 15:00N 53°35' E 008°33'0 0.0
2018-Oct-14 14:30N 53°35' E 008°33'0 0.0
2018-Oct-14 14:00N 53°35' E 008°33'0 0.0
2018-Oct-14 13:30N 53°35' E 008°33'0 0.0
2018-Oct-14 13:03N 53°35' E 008°33'0 0.0
2018-Oct-14 13:00N 53°35' E 008°33'0 0.0
2018-Oct-14 12:30N 53°35' E 008°33'0 0.0
2018-Oct-14 12:03N 53°35' E 008°33'0 0.0
2018-Oct-14 12:00N 53°35' E 008°33'0 0.0
2018-Oct-14 11:30N 53°35' E 008°33'0 0.0
2018-Oct-14 11:03N 53°35' E 008°33'0 0.0
2018-Oct-14 11:00N 53°35' E 008°33'0 0.0
2018-Oct-14 10:30N 53°35' E 008°33'0 0.0
2018-Oct-14 10:03N 53°35' E 008°33'0 0.0
2018-Oct-14 10:00N 53°35' E 008°33'0 0.0
2018-Oct-14 09:30N 53°35' E 008°33'0 0.0
2018-Oct-14 09:03N 53°35' E 008°33'0 0.0
2018-Oct-14 09:00N 53°35' E 008°33'0 0.0
2018-Oct-14 08:27N 53°35' E 008°33'0 0.0
2018-Oct-14 08:03N 53°35' E 008°33'0 0.0
2018-Oct-14 08:00N 53°35' E 008°33'0 0.9
2018-Oct-14 07:30N 53°34' E 008°33'0 0.5
2018-Oct-14 07:03N 53°34' E 008°33'0 2.8
2018-Oct-14 07:00N 53°34' E 008°33'1 3.0
2018-Oct-14 06:30N 53°35' E 008°31'510.7
2018-Oct-14 06:03N 53°38' E 008°26'114.3
2018-Oct-14 06:00N 53°39' E 008°25'714.1
2018-Oct-14 05:30N 53°44' E 008°16'614.3
2018-Oct-14 05:03N 53°48' E 008°08'115.0
2018-Oct-14 05:00N 53°49' E 008°07'815.1
2018-Oct-14 04:30N 53°52' E 007°55'511.7
2018-Oct-14 04:03N 53°53' E 007°47'111.5
2018-Oct-14 04:00N 53°53' E 007°46'611.8
2018-Oct-14 03:30N 53°54' E 007°36'611.9
2018-Oct-14 03:00N 53°54' E 007°26'1510.1
2018-Oct-14 01:32N 53°51' E 007°01'1 7.8
2018-Oct-14 01:24N 53°50' E 006°59'3 7.9
2018-Oct-14 01:02N 53°50' E 006°54'1 8.0
2018-Oct-14 00:56N 53°49' E 006°53'4 8.3
2018-Oct-14 00:27N 53°49' E 006°46'16 8.9
2018-Oct-13 22:41N 53°45' E 006°21'2 9.0
2018-Oct-13 22:29N 53°44' E 006°18'4 9.1
2018-Oct-13 22:02N 53°43' E 006°11'1 9.1
2018-Oct-13 21:54N 53°42' E 006°10'4 9.1
2018-Oct-13 21:26N 53°41' E 006°03'4 9.0
2018-Oct-13 21:01N 53°40' E 005°57'0 9.2
2018-Oct-13 21:00N 53°40' E 005°57'5 9.0
2018-Oct-13 20:30N 53°38' E 005°49'4 9.0
2018-Oct-13 20:03N 53°37' E 005°43'0 8.9
2018-Oct-13 20:00N 53°37' E 005°42'4 8.7
2018-Oct-13 19:30N 53°36' E 005°35'4 8.5
2018-Oct-13 19:03N 53°34' E 005°29'0 8.6
2018-Oct-13 19:00N 53°34' E 005°28'4 8.4
2018-Oct-13 18:30N 53°33' E 005°22'4 8.0
2018-Oct-13 18:03N 53°32' E 005°16'0 7.7
2018-Oct-13 18:00N 53°32' E 005°15'4 7.3
2018-Oct-13 17:24N 53°30' E 005°08'2 6.9
2018-Oct-13 17:03N 53°30' E 005°04'0 6.8
2018-Oct-13 17:00N 53°29' E 005°04'3 6.7
2018-Oct-13 16:30N 53°28' E 004°59'3 6.5
2018-Oct-13 16:03N 53°27' E 004°54'0 6.5
2018-Oct-13 16:00N 53°27' E 004°54'4 6.5
2018-Oct-13 15:27N 53°25' E 004°48'3 6.3
2018-Oct-13 15:01N 53°24' E 004°45'0 6.0
2018-Oct-13 14:57N 53°24' E 004°44'2 5.6
2018-Oct-13 14:30N 53°22' E 004°41'3 6.2
2018-Oct-13 13:57N 53°19' E 004°39'3 6.3
2018-Oct-13 13:30N 53°16' E 004°37'3 6.4
2018-Oct-13 13:03N 53°13' E 004°35'0 6.5
2018-Oct-13 13:00N 53°13' E 004°35'3 6.5
2018-Oct-13 12:30N 53°10' E 004°32'3 6.4
2018-Oct-13 12:03N 53°08' E 004°30'0 6.3
2018-Oct-13 12:00N 53°07' E 004°30'3 6.4
2018-Oct-13 11:30N 53°05' E 004°27'3 6.5
2018-Oct-13 11:03N 53°02' E 004°25'0 6.5
2018-Oct-13 11:00N 53°02' E 004°25'3 6.6
2018-Oct-13 10:30N 52°59' E 004°22'510.6
2018-Oct-13 10:03N 52°55' E 004°18'111.6
2018-Oct-13 10:00N 52°54' E 004°18'611.5
2018-Oct-13 09:30N 52°49' E 004°13'511.7
2018-Oct-13 09:03N 52°46' E 004°07'111.6
2018-Oct-13 09:00N 52°45' E 004°06'611.9
2018-Oct-13 08:30N 52°41' E 003°59'512.3
2018-Oct-13 08:03N 52°37' E 003°52'112.0
2018-Oct-13 08:00N 52°37' E 003°52'612.4
2018-Oct-13 07:30N 52°32' E 003°45'612.7
2018-Oct-13 07:03N 52°28' E 003°38'112.8
2018-Oct-13 07:00N 52°28' E 003°37'612.9
2018-Oct-13 06:30N 52°23' E 003°30'612.9
2018-Oct-13 06:03N 52°19' E 003°24'112.9
2018-Oct-13 06:00N 52°18' E 003°23'613.0
2018-Oct-13 05:30N 52°14' E 003°15'613.2
2018-Oct-13 05:03N 52°10' E 003°08'113.3
2018-Oct-13 05:00N 52°09' E 003°07'713.6
2018-Oct-13 04:30N 52°04' E 002°60'613.9
2018-Oct-13 04:03N 51°60' E 002°53'114.1
2018-Oct-13 04:00N 51°59' E 002°52'714.0
2018-Oct-13 03:31N 51°54' E 002°45'614.1
2018-Oct-13 03:04N 51°49' E 002°39'114.2
2018-Oct-13 03:00N 51°48' E 002°38'714.1
2018-Oct-13 02:31N 51°43' E 002°31'613.7
2018-Oct-13 02:03N 51°38' E 002°25'113.8
2018-Oct-13 02:00N 51°37' E 002°24'713.5
2018-Oct-13 01:30N 51°32' E 002°17'613.0
2018-Oct-13 01:03N 51°27' E 002°12'112.9
2018-Oct-13 01:00N 51°27' E 002°12'612.3
2018-Oct-13 00:30N 51°21' E 002°09'511.9
2018-Oct-13 00:03N 51°16' E 002°06'111.4
2018-Oct-13 00:00N 51°15' E 002°05'611.9
2018-Oct-12 23:31N 51°12' E 001°58'511.7
2018-Oct-12 23:04N 51°09' E 001°51'111.5
2018-Oct-12 23:00N 51°08' E 001°50'510.9
2018-Oct-12 22:31N 51°05' E 001°43'510.9
2018-Oct-12 22:03N 51°02' E 001°38'110.9
2018-Oct-12 22:01N 51°01' E 001°37'510.7
2018-Oct-12 21:31N 50°57' E 001°31'510.4
2018-Oct-12 21:03N 50°54' E 001°27'110.8
2018-Oct-12 21:01N 50°53' E 001°26'611.0
2018-Oct-12 20:31N 50°48' E 001°24'511.2
2018-Oct-12 20:03N 50°43' E 001°22'111.1
2018-Oct-12 20:01N 50°43' E 001°21'510.7
2018-Oct-12 19:31N 50°39' E 001°15'511.2
2018-Oct-12 19:04N 50°35' E 001°09'111.5
2018-Oct-12 19:00N 50°35' E 001°09'511.2
2018-Oct-12 18:30N 50°31' E 001°02'511.1
2018-Oct-12 18:03N 50°30' E 000°54'111.0
2018-Oct-12 18:00N 50°30' E 000°54'611.1
2018-Oct-12 17:30N 50°29' E 000°45'511.1
2018-Oct-12 17:03N 50°28' E 000°37'111.0
2018-Oct-12 17:00N 50°27' E 000°36'611.0
2018-Oct-12 16:25N 50°26' E 000°27'510.9
2018-Oct-12 15:56N 50°24' E 000°19'2010.9
2018-Oct-12 14:03N 50°20' W 000°13'511.9
2018-Oct-12 13:40N 50°19' W 000°20'413.0
2018-Oct-12 13:22N 50°18' W 000°26'613.6
2018-Oct-12 12:55N 50°16' W 000°35'614.2
2018-Oct-12 12:30N 50°14' W 000°44'715.1
2018-Oct-12 12:03N 50°12' W 000°54'116.0
2018-Oct-12 12:00N 50°12' W 000°55'816.1
2018-Oct-12 11:30N 50°10' W 001°07'716.7
2018-Oct-12 11:03N 50°08' W 001°18'116.8
2018-Oct-12 11:01N 50°07' W 001°19'917.3
2018-Oct-12 10:31N 50°05' W 001°32'817.2
2018-Oct-12 10:04N 50°03' W 001°44'117.5
2018-Oct-12 10:00N 50°03' W 001°45'917.2
2018-Oct-12 09:30N 50°01' W 001°58'817.1
2018-Oct-12 09:03N 49°59' W 002°10'616.5
2018-Oct-12 08:40N 49°57' W 002°20'11713.5
2018-Oct-12 00:00N 49°36' W 005°18'3737311.4 180 / 351010.0 2.2 14.8 14.0
2018-Oct-11 12:00N 49°18' W 101°06'3467577.8 230 / 14998.010.8 14.5 15.0
2018-Oct-11 06:00N 49°18' W 012°30'2691224.2 270 / 17991.9 2.2 12.6 16.4
2018-Oct-10 18:00N 49°12' W 081°12'2355392.6 290 / 39975.8 2.2 12.2 15.8
2018-Oct-10 12:00N 49°24' W 021°00'   320 / 33980.8 2.2 10.6 15.0
Track history (hours):
 
Tides and Currents Weather Stations Pressure Air Temp Water Temp Dewpoint Dewpoint Depression Visibility Wind Speed Wind Dir Waves Ship Positions

Carmen

Last reported at 2018-Oct-20 06:30 UTC. Time now 2018-Oct-20 07:01 UTC.
Position N 49°29' E 000°10'.

Length 231 m; draft 9.4 m.

Type: Cargo ship. MMSI: 266339000.

Date/timePositionNaut miles runAvg speedWind from/ knotsBaromVisibWave heightAir tempDewpointWater temp
2018-Oct-20 06:30N 49°29' E 000°10'1 1.3
2018-Oct-20 06:03N 49°28' E 000°10'0 5.1
2018-Oct-20 06:00N 49°28' E 000°09'4 7.8
2018-Oct-20 05:30N 49°29' E 000°04'613.9
2018-Oct-20 05:03N 49°31' W 000°06'0 8.1
2018-Oct-20 05:00N 49°32' W 000°06'3 7.0
2018-Oct-20 04:30N 49°32' W 000°11'3 7.7
2018-Oct-20 04:03N 49°33' W 000°17'0 7.5
2018-Oct-20 04:00N 49°33' W 000°17'4 7.3
2018-Oct-20 03:30N 49°36' W 000°21'4 7.8
2018-Oct-20 03:03N 49°39' W 000°23'0 7.7
2018-Oct-20 03:00N 49°39' W 000°24'4 7.4
2018-Oct-20 02:30N 49°43' W 000°26'3 7.3
2018-Oct-20 02:03N 49°46' W 000°28'0 7.5
2018-Oct-20 02:00N 49°46' W 000°28'4 7.4
2018-Oct-20 01:26N 49°50' W 000°31'3 6.5
2018-Oct-20 00:57N 49°53' W 000°32'5 7.7
2018-Oct-20 00:15N 49°57' W 000°26'5 9.3
2018-Oct-19 23:43N 50°01' W 000°22'416.6
2018-Oct-19 23:29N 50°05' W 000°19'816.5
2018-Oct-19 23:01N 50°12' W 000°14'016.8
2018-Oct-19 22:59N 50°12' W 000°13'916.3
2018-Oct-19 22:27N 50°20' W 000°08'616.1
2018-Oct-19 22:03N 50°26' W 000°04'116.5
2018-Oct-19 21:58N 50°27' W 000°02'816.4
2018-Oct-19 21:30N 50°30' E 000°09'816.2
2018-Oct-19 21:02N 50°32' E 000°20'015.7
2018-Oct-19 21:00N 50°32' E 000°21'815.9
2018-Oct-19 20:31N 50°34' E 000°33'715.3
2018-Oct-19 20:04N 50°38' E 000°43'115.4
2018-Oct-19 20:01N 50°38' E 000°44'815.2
2018-Oct-19 19:30N 50°43' E 000°53'714.9
2018-Oct-19 19:03N 50°46' E 001°02'114.9
2018-Oct-19 19:00N 50°47' E 001°03'714.9
2018-Oct-19 18:30N 50°51' E 001°13'715.1
2018-Oct-19 18:03N 50°56' E 001°20'115.2
2018-Oct-19 18:00N 50°57' E 001°21'815.7
2018-Oct-19 17:31N 51°02' E 001°29'716.2
2018-Oct-19 17:04N 51°07' E 001°38'116.4
2018-Oct-19 17:01N 51°08' E 001°39'816.7
2018-Oct-19 16:31N 51°14' E 001°48'816.7
2018-Oct-19 16:04N 51°20' E 001°54'116.8
2018-Oct-19 16:01N 51°21' E 001°55'713.2
2018-Oct-19 15:30N 51°24' E 002°04'715.8
2018-Oct-19 15:04N 51°21' E 002°14'115.8
2018-Oct-19 15:00N 51°21' E 002°15'815.9
2018-Oct-19 14:30N 51°22' E 002°28'1414.0
2018-Oct-19 13:30N 51°25' E 002°50'816.7
2018-Oct-19 13:03N 51°25' E 003°02'116.7
2018-Oct-19 13:00N 51°25' E 003°03'713.6
2018-Oct-19 12:30N 51°21' E 003°12'1 2.5
2018-Oct-19 12:03N 51°20' E 003°13'0 0.0
2018-Oct-19 12:00N 51°20' E 003°13'0 0.0
2018-Oct-19 11:30N 51°20' E 003°13'1 2.4
2018-Oct-19 10:58N 51°19' E 003°14'0 0.0
2018-Oct-19 10:28N 51°19' E 003°14'0 0.0
2018-Oct-19 09:49N 51°19' E 003°14'0 0.0
2018-Oct-19 09:28N 51°19' E 003°14'0 0.0
2018-Oct-19 08:25N 51°19' E 003°14'0 0.0
2018-Oct-19 07:58N 51°19' E 003°14'0 0.0
2018-Oct-19 07:28N 51°19' E 003°14'0 0.0
2018-Oct-19 07:01N 51°19' E 003°14'0 0.0
2018-Oct-19 06:58N 51°19' E 003°14'0 0.0
2018-Oct-19 06:25N 51°19' E 003°14'0 0.0
2018-Oct-19 05:52N 51°19' E 003°14'0 0.0
2018-Oct-19 05:28N 51°19' E 003°14'0 0.0
2018-Oct-19 04:58N 51°19' E 003°14'0 0.0
2018-Oct-19 04:22N 51°19' E 003°14'0 0.0
2018-Oct-19 03:55N 51°19' E 003°14'0 0.0
2018-Oct-19 03:10N 51°19' E 003°14'0 0.0
2018-Oct-19 03:01N 51°19' E 003°14'0 0.0
2018-Oct-19 02:58N 51°19' E 003°14'0 0.0
2018-Oct-19 02:28N 51°19' E 003°14'0 0.0
2018-Oct-19 01:58N 51°19' E 003°14'0 0.0
2018-Oct-19 01:25N 51°19' E 003°14'0 0.0
2018-Oct-19 00:55N 51°19' E 003°14'0 0.0
2018-Oct-19 00:28N 51°19' E 003°14'0 0.0
2018-Oct-18 23:58N 51°19' E 003°14'0 0.0
2018-Oct-18 23:19N 51°19' E 003°14'0 0.0
2018-Oct-18 22:49N 51°19' E 003°14'0 0.0
2018-Oct-18 22:25N 51°19' E 003°14'0 0.0
2018-Oct-18 21:58N 51°19' E 003°14'0 0.0
2018-Oct-18 21:28N 51°19' E 003°14'0 0.0
2018-Oct-18 20:58N 51°19' E 003°14'0 0.0
2018-Oct-18 20:22N 51°19' E 003°14'0 0.0
2018-Oct-18 20:01N 51°19' E 003°14'0 0.0
2018-Oct-18 19:55N 51°19' E 003°14'0 0.0
2018-Oct-18 19:28N 51°19' E 003°14'0 0.0
2018-Oct-18 19:01N 51°19' E 003°14'0 0.0
2018-Oct-18 18:55N 51°19' E 003°14'0 0.0
2018-Oct-18 18:22N 51°19' E 003°14'0 0.0
2018-Oct-18 18:01N 51°19' E 003°14'0 0.0
2018-Oct-18 17:58N 51°19' E 003°14'0 0.0
2018-Oct-18 17:28N 51°19' E 003°14'0 0.0
2018-Oct-18 16:52N 51°19' E 003°14'0 0.0
2018-Oct-18 16:19N 51°19' E 003°14'0 0.0
2018-Oct-18 16:01N 51°19' E 003°14'0 0.0
2018-Oct-18 15:58N 51°19' E 003°14'0 0.0
2018-Oct-18 15:28N 51°19' E 003°14'0 0.0
2018-Oct-18 14:55N 51°19' E 003°14'0 0.0
2018-Oct-18 13:58N 51°19' E 003°14'0 0.0
2018-Oct-18 13:28N 51°19' E 003°14'0 0.0
2018-Oct-18 12:58N 51°19' E 003°14'0 0.0
2018-Oct-18 12:28N 51°19' E 003°14'0 0.0
2018-Oct-18 12:01N 51°19' E 003°14'0 0.0
2018-Oct-18 11:58N 51°19' E 003°14'0 0.0
2018-Oct-18 11:28N 51°19' E 003°14'0 0.0
2018-Oct-18 10:58N 51°19' E 003°14'0 0.0
2018-Oct-18 10:28N 51°19' E 003°14'0 0.0
2018-Oct-18 10:01N 51°19' E 003°14'0 0.0
2018-Oct-18 09:58N 51°19' E 003°14'0 0.0
2018-Oct-18 09:28N 51°19' E 003°14'0 0.0
2018-Oct-18 09:01N 51°19' E 003°14'0 0.0
2018-Oct-18 08:58N 51°19' E 003°14'0 0.0
2018-Oct-18 08:28N 51°19' E 003°14'0 0.0
2018-Oct-18 08:01N 51°19' E 003°14'0 0.0
2018-Oct-18 07:58N 51°19' E 003°14'0 0.0
2018-Oct-18 07:28N 51°19' E 003°14'0 0.0
2018-Oct-18 07:01N 51°19' E 003°14'0 0.0
2018-Oct-18 06:55N 51°19' E 003°14'0 0.0
2018-Oct-18 06:28N 51°19' E 003°14'0 0.0
2018-Oct-18 06:01N 51°19' E 003°14'0 0.0
2018-Oct-18 05:58N 51°19' E 003°14'0 0.0
2018-Oct-18 05:28N 51°19' E 003°14'0 0.0
2018-Oct-18 05:01N 51°19' E 003°14'0 0.0
2018-Oct-18 04:58N 51°19' E 003°14'0 0.0
2018-Oct-18 04:28N 51°19' E 003°14'0 0.0
2018-Oct-18 03:58N 51°19' E 003°14'0 0.0
2018-Oct-18 03:28N 51°19' E 003°14'0 0.0
2018-Oct-18 03:01N 51°19' E 003°14'0 0.0
2018-Oct-18 02:58N 51°19' E 003°14'0 0.0
2018-Oct-18 02:28N 51°19' E 003°14'0 0.0
2018-Oct-18 02:01N 51°19' E 003°14'0 0.0
2018-Oct-18 01:58N 51°19' E 003°14'0 0.0
2018-Oct-18 01:25N 51°19' E 003°14'0 0.0
2018-Oct-18 01:01N 51°19' E 003°14'0 0.0
2018-Oct-18 00:58N 51°19' E 003°14'0 0.0
2018-Oct-18 00:28N 51°19' E 003°14'0 0.0
2018-Oct-17 23:58N 51°19' E 003°14'0 0.0
2018-Oct-17 23:25N 51°19' E 003°14'0 0.0
2018-Oct-17 23:01N 51°19' E 003°14'0 0.0
2018-Oct-17 22:58N 51°19' E 003°14'0 0.0
2018-Oct-17 22:25N 51°19' E 003°14'0 0.0
2018-Oct-17 22:01N 51°19' E 003°14'0 0.0
2018-Oct-17 21:58N 51°19' E 003°14'0 0.0
2018-Oct-17 21:28N 51°19' E 003°14'0 0.0
2018-Oct-17 21:01N 51°19' E 003°14'0 0.0
2018-Oct-17 20:55N 51°19' E 003°14'0 0.0
2018-Oct-17 20:25N 51°19' E 003°14'0 0.0
2018-Oct-17 20:01N 51°19' E 003°14'0 0.0
2018-Oct-17 19:58N 51°19' E 003°14'0 0.0
2018-Oct-17 19:28N 51°19' E 003°14'0 0.0
2018-Oct-17 19:01N 51°19' E 003°14'0 0.0
2018-Oct-17 18:58N 51°19' E 003°14'0 0.0
2018-Oct-17 18:28N 51°19' E 003°14'0 0.0
2018-Oct-17 18:01N 51°19' E 003°14'0 0.0
2018-Oct-17 17:58N 51°19' E 003°14'0 0.0
2018-Oct-17 17:28N 51°19' E 003°14'0 0.0
2018-Oct-17 17:01N 51°19' E 003°14'0 0.0
2018-Oct-17 16:55N 51°19' E 003°14'0 0.0
2018-Oct-17 16:25N 51°19' E 003°14'0 0.0
2018-Oct-17 16:01N 51°19' E 003°14'0 0.0
2018-Oct-17 15:58N 51°19' E 003°14'0 0.0
2018-Oct-17 15:25N 51°19' E 003°14'0 0.7
2018-Oct-17 15:03N 51°19' E 003°13'0 0.4
2018-Oct-17 15:00N 51°19' E 003°13'1 2.2
2018-Oct-17 14:30N 51°20' E 003°13'4 3.9
2018-Oct-17 13:31N 51°23' E 003°09'715.1
2018-Oct-17 13:03N 51°23' E 002°58'117.4
2018-Oct-17 13:01N 51°23' E 002°57'816.2
2018-Oct-17 12:30N 51°21' E 002°44'510.5
2018-Oct-17 12:03N 51°22' E 002°37'110.3
2018-Oct-17 11:59N 51°22' E 002°36'3 6.7
2018-Oct-17 11:30N 51°24' E 002°31'4 8.2
2018-Oct-17 11:03N 51°27' E 002°33'1 8.3
2018-Oct-17 10:58N 51°27' E 002°34'5 9.3
2018-Oct-17 10:26N 51°32' E 002°37'4 9.1
2018-Oct-17 10:02N 51°36' E 002°39'0 9.4
2018-Oct-17 09:59N 51°36' E 002°39'4 8.7
2018-Oct-17 09:31N 51°40' E 002°39'611.1
2018-Oct-17 09:00N 51°46' E 002°37'916.1
2018-Oct-17 08:28N 51°54' E 002°40'917.2
2018-Oct-17 07:55N 52°02' E 002°49'1417.1
2018-Oct-17 07:06N 52°13' E 003°03'117.1
2018-Oct-17 07:03N 52°13' E 003°03'216.9
2018-Oct-17 06:57N 52°15' E 003°05'1116.9
2018-Oct-17 06:18N 52°24' E 003°16'816.7
2018-Oct-17 05:51N 52°30' E 003°23'616.6
2018-Oct-17 05:30N 52°34' E 003°29'816.6
2018-Oct-17 05:03N 52°40' E 003°37'116.6
2018-Oct-17 04:59N 52°41' E 003°38'1316.7
2018-Oct-17 04:13N 52°51' E 003°51'416.9
2018-Oct-17 04:00N 52°54' E 003°55'916.9
2018-Oct-17 03:30N 52°60' E 004°05'817.4
2018-Oct-17 03:03N 53°05' E 004°14'118.2
2018-Oct-17 03:00N 53°06' E 004°15'917.5
2018-Oct-17 02:30N 53°12' E 004°25'817.3
2018-Oct-17 02:03N 53°19' E 004°30'117.1
2018-Oct-17 02:00N 53°20' E 004°30'816.8
2018-Oct-17 01:30N 53°28' E 004°37'716.3
2018-Oct-17 01:03N 53°31' E 004°47'116.4
2018-Oct-17 01:00N 53°32' E 004°49'816.1
2018-Oct-17 00:30N 53°34' E 005°02'715.8
2018-Oct-17 00:03N 53°36' E 005°13'115.6
2018-Oct-17 00:00N 53°36' E 005°14'815.5
2018-Oct-16 23:30N 53°38' E 005°27'715.6
2018-Oct-16 23:03N 53°41' E 005°38'115.5
2018-Oct-16 23:00N 53°41' E 005°40'815.4
2018-Oct-16 22:30N 53°43' E 005°52'715.5
2018-Oct-16 22:03N 53°46' E 006°03'115.6
2018-Oct-16 22:00N 53°46' E 006°04'815.8
2018-Oct-16 21:30N 53°49' E 006°17'716.2
2018-Oct-16 21:03N 53°51' E 006°29'116.4
2018-Oct-16 21:00N 53°51' E 006°30'816.6
2018-Oct-16 20:30N 53°53' E 006°44'816.9
2018-Oct-16 20:03N 53°55' E 006°56'116.9
2018-Oct-16 20:00N 53°55' E 006°57'917.0
2018-Oct-16 19:30N 53°57' E 007°12'817.0
2018-Oct-16 19:02N 53°59' E 007°25'017.1
2018-Oct-16 19:00N 53°59' E 007°26'3314.1
2018-Oct-16 16:42N 53°44' E 008°15'416.0
2018-Oct-16 16:26N 53°41' E 008°21'615.3
2018-Oct-16 16:03N 53°38' E 008°28'114.9
2018-Oct-16 16:00N 53°37' E 008°29'4 8.0
2018-Oct-16 15:31N 53°34' E 008°33'0 0.9
2018-Oct-16 15:04N 53°34' E 008°33'0 0.1
2018-Oct-16 15:01N 53°34' E 008°33'1 1.0
2018-Oct-16 14:27N 53°35' E 008°33'0 0.0
2018-Oct-16 14:00N 53°35' E 008°33'0 0.0
2018-Oct-16 13:30N 53°35' E 008°33'0 0.0
2018-Oct-16 13:00N 53°35' E 008°33'0 0.0
2018-Oct-16 12:30N 53°35' E 008°33'0 0.0
2018-Oct-16 12:03N 53°35' E 008°33'0 0.0
2018-Oct-16 11:57N 53°35' E 008°33'0 0.0
2018-Oct-16 11:30N 53°35' E 008°33'0 0.0
2018-Oct-16 11:03N 53°35' E 008°33'0 0.0
2018-Oct-16 11:00N 53°35' E 008°33'0 0.0
2018-Oct-16 10:27N 53°35' E 008°33'0 0.0
2018-Oct-16 10:03N 53°35' E 008°33'0 0.0
2018-Oct-16 10:00N 53°35' E 008°33'0 0.0
2018-Oct-16 09:30N 53°35' E 008°33'0 0.0
2018-Oct-16 09:03N 53°35' E 008°33'0 0.0
2018-Oct-16 09:00N 53°35' E 008°33'0 0.0
2018-Oct-16 08:30N 53°35' E 008°33'0 0.0
2018-Oct-16 08:03N 53°35' E 008°33'0 0.0
2018-Oct-16 08:00N 53°35' E 008°33'0 0.0
2018-Oct-16 07:30N 53°35' E 008°33'0 0.0
2018-Oct-16 07:03N 53°35' E 008°33'0 0.0
2018-Oct-16 07:00N 53°35' E 008°33'0 0.0
2018-Oct-16 06:30N 53°35' E 008°33'0 0.0
2018-Oct-16 06:03N 53°35' E 008°33'0 0.0
2018-Oct-16 06:00N 53°35' E 008°33'0 0.0
2018-Oct-16 05:30N 53°35' E 008°33'0 0.0
2018-Oct-16 05:03N 53°35' E 008°33'0 0.0
2018-Oct-16 05:00N 53°35' E 008°33'0 0.0
2018-Oct-16 04:30N 53°35' E 008°33'0 0.0
2018-Oct-16 04:03N 53°35' E 008°33'0 0.0
2018-Oct-16 04:00N 53°35' E 008°33'0 0.0
2018-Oct-16 03:30N 53°35' E 008°33'0 0.0
2018-Oct-16 03:03N 53°35' E 008°33'0 0.0
2018-Oct-16 03:00N 53°35' E 008°33'0 0.0
2018-Oct-16 02:30N 53°35' E 008°33'0 0.0
2018-Oct-16 02:03N 53°35' E 008°33'0 0.0
2018-Oct-16 02:00N 53°35' E 008°33'0 0.0
2018-Oct-16 01:30N 53°35' E 008°33'0 0.0
2018-Oct-16 01:00N 53°35' E 008°33'0 0.0
2018-Oct-16 00:30N 53°35' E 008°33'0 0.0
2018-Oct-15 23:54N 53°35' E 008°33'0 0.0
2018-Oct-15 23:30N 53°35' E 008°33'0 0.0
2018-Oct-15 23:03N 53°35' E 008°33'0 0.0
2018-Oct-15 23:00N 53°35' E 008°33'0 0.0
2018-Oct-15 22:30N 53°35' E 008°33'0 0.0
2018-Oct-15 22:03N 53°35' E 008°33'0 0.0
2018-Oct-15 22:00N 53°35' E 008°33'0 0.0
2018-Oct-15 21:30N 53°35' E 008°33'0 0.0
2018-Oct-15 21:03N 53°35' E 008°33'0 0.0
2018-Oct-15 21:00N 53°35' E 008°33'0 0.0
2018-Oct-15 20:30N 53°35' E 008°33'0 0.0
2018-Oct-15 20:03N 53°35' E 008°33'0 0.0
2018-Oct-15 20:00N 53°35' E 008°33'0 0.0
2018-Oct-15 19:30N 53°35' E 008°33'0 0.0
2018-Oct-15 19:03N 53°35' E 008°33'0 0.0
2018-Oct-15 18:57N 53°35' E 008°33'0 0.0
2018-Oct-15 18:30N 53°35' E 008°33'0 0.0
2018-Oct-15 18:00N 53°35' E 008°33'0 0.0
2018-Oct-15 17:30N 53°35' E 008°33'0 0.0
2018-Oct-15 17:03N 53°35' E 008°33'0 0.0
2018-Oct-15 16:57N 53°35' E 008°33'0 0.0
2018-Oct-15 16:27N 53°35' E 008°33'0 0.0
2018-Oct-15 16:03N 53°35' E 008°33'0 0.0
2018-Oct-15 16:00N 53°35' E 008°33'0 0.0
2018-Oct-15 15:27N 53°35' E 008°33'0 0.0
2018-Oct-15 15:03N 53°35' E 008°33'0 0.0
2018-Oct-15 15:00N 53°35' E 008°33'0 0.0
2018-Oct-15 14:30N 53°35' E 008°33'0 0.0
2018-Oct-15 13:57N 53°35' E 008°33'0 0.0
2018-Oct-15 13:30N 53°35' E 008°33'0 0.0
2018-Oct-15 13:03N 53°35' E 008°33'0 0.0
2018-Oct-15 13:00N 53°35' E 008°33'0 0.0
2018-Oct-15 12:30N 53°35' E 008°33'0 0.0
2018-Oct-15 12:03N 53°35' E 008°33'0 0.0
2018-Oct-15 11:57N 53°35' E 008°33'0 0.0
2018-Oct-15 11:30N 53°35' E 008°33'0 0.0
2018-Oct-15 11:03N 53°35' E 008°33'0 0.0
2018-Oct-15 11:00N 53°35' E 008°33'0 0.0
2018-Oct-15 10:30N 53°35' E 008°33'0 0.0
2018-Oct-15 10:03N 53°35' E 008°33'0 0.0
2018-Oct-15 10:00N 53°35' E 008°33'0 0.0
2018-Oct-15 09:30N 53°35' E 008°33'0 0.0
2018-Oct-15 09:03N 53°35' E 008°33'0 0.0
2018-Oct-15 09:00N 53°35' E 008°33'0 0.0
2018-Oct-15 08:30N 53°35' E 008°33'0 0.0
2018-Oct-15 08:03N 53°35' E 008°33'0 0.0
2018-Oct-15 07:57N 53°35' E 008°33'0 0.0
2018-Oct-15 07:30N 53°35' E 008°33'0 0.0
2018-Oct-15 07:03N 53°35' E 008°33'0 0.0
2018-Oct-15 07:00N 53°35' E 008°33'0 0.0
2018-Oct-15 06:30N 53°35' E 008°33'0 0.0
2018-Oct-15 06:03N 53°35' E 008°33'0 0.0
2018-Oct-15 06:00N 53°35' E 008°33'0 0.0
2018-Oct-15 05:30N 53°35' E 008°33'0 0.0
2018-Oct-15 05:03N 53°35' E 008°33'0 0.0
2018-Oct-15 05:00N 53°35' E 008°33'0 0.0
2018-Oct-15 04:27N 53°35' E 008°33'0 0.0
2018-Oct-15 04:03N 53°35' E 008°33'0 0.0
2018-Oct-15 04:00N 53°35' E 008°33'0 0.0
2018-Oct-15 03:30N 53°35' E 008°33'0 0.0
2018-Oct-15 03:03N 53°35' E 008°33'0 0.0
2018-Oct-15 03:00N 53°35' E 008°33'0 0.0
2018-Oct-15 02:30N 53°35' E 008°33'0 0.0
2018-Oct-15 02:03N 53°35' E 008°33'0 0.0
2018-Oct-15 02:00N 53°35' E 008°33'0 0.0
2018-Oct-15 01:27N 53°35' E 008°33'0 0.0
2018-Oct-15 01:03N 53°35' E 008°33'0 0.0
2018-Oct-15 01:00N 53°35' E 008°33'0 0.0
2018-Oct-15 00:30N 53°35' E 008°33'0 0.0
2018-Oct-15 00:03N 53°35' E 008°33'0 0.0
2018-Oct-14 23:57N 53°35' E 008°33'0 0.0
2018-Oct-14 23:30N 53°35' E 008°33'0 0.0
2018-Oct-14 23:03N 53°35' E 008°33'0 0.0
2018-Oct-14 23:00N 53°35' E 008°33'0 0.0
2018-Oct-14 22:30N 53°35' E 008°33'0 0.0
2018-Oct-14 22:03N 53°35' E 008°33'0 0.0
2018-Oct-14 22:00N 53°35' E 008°33'0 0.0
2018-Oct-14 21:27N 53°35' E 008°33'0 0.0
2018-Oct-14 21:03N 53°35' E 008°33'0 0.0
2018-Oct-14 20:57N 53°35' E 008°33'0 0.0
2018-Oct-14 20:30N 53°35' E 008°33'0 0.0
2018-Oct-14 20:03N 53°35' E 008°33'0 0.0
2018-Oct-14 20:00N 53°35' E 008°33'0 0.0
2018-Oct-14 19:30N 53°35' E 008°33'0 0.0
2018-Oct-14 19:03N 53°35' E 008°33'0 0.0
2018-Oct-14 19:00N 53°35' E 008°33'0 0.0
2018-Oct-14 18:30N 53°35' E 008°33'0 0.0
2018-Oct-14 18:03N 53°35' E 008°33'0 0.0
2018-Oct-14 18:00N 53°35' E 008°33'0 0.0
2018-Oct-14 17:30N 53°35' E 008°33'0 0.0
2018-Oct-14 17:03N 53°35' E 008°33'0 0.0
2018-Oct-14 17:00N 53°35' E 008°33'0 0.0
2018-Oct-14 16:30N 53°35' E 008°33'0 0.0
2018-Oct-14 16:03N 53°35' E 008°33'0 0.0
2018-Oct-14 16:00N 53°35' E 008°33'0 0.0
2018-Oct-14 15:30N 53°35' E 008°33'0 0.0
2018-Oct-14 15:03N 53°35' E 008°33'0 0.0
2018-Oct-14 15:00N 53°35' E 008°33'0 0.0
2018-Oct-14 14:30N 53°35' E 008°33'0 0.0
2018-Oct-14 14:00N 53°35' E 008°33'0 0.0
2018-Oct-14 13:30N 53°35' E 008°33'0 0.0
2018-Oct-14 13:03N 53°35' E 008°33'0 0.0
2018-Oct-14 13:00N 53°35' E 008°33'0 0.0
2018-Oct-14 12:30N 53°35' E 008°33'0 0.0
2018-Oct-14 12:03N 53°35' E 008°33'0 0.0
2018-Oct-14 12:00N 53°35' E 008°33'0 0.0
2018-Oct-14 11:30N 53°35' E 008°33'0 0.0
2018-Oct-14 11:03N 53°35' E 008°33'0 0.0
2018-Oct-14 11:00N 53°35' E 008°33'0 0.0
2018-Oct-14 10:30N 53°35' E 008°33'0 0.0
2018-Oct-14 10:03N 53°35' E 008°33'0 0.0
2018-Oct-14 10:00N 53°35' E 008°33'0 0.0
2018-Oct-14 09:30N 53°35' E 008°33'0 0.0
2018-Oct-14 09:03N 53°35' E 008°33'0 0.0
2018-Oct-14 09:00N 53°35' E 008°33'0 0.0
2018-Oct-14 08:27N 53°35' E 008°33'0 0.0
2018-Oct-14 08:03N 53°35' E 008°33'0 0.0
2018-Oct-14 08:00N 53°35' E 008°33'0 0.9
2018-Oct-14 07:30N 53°34' E 008°33'0 0.5
2018-Oct-14 07:03N 53°34' E 008°33'0 2.8
2018-Oct-14 07:00N 53°34' E 008°33'1 3.0
2018-Oct-14 06:30N 53°35' E 008°31'510.7
2018-Oct-14 06:03N 53°38' E 008°26'114.3
2018-Oct-14 06:00N 53°39' E 008°25'714.1
2018-Oct-14 05:30N 53°44' E 008°16'614.3
2018-Oct-14 05:03N 53°48' E 008°08'115.0
2018-Oct-14 05:00N 53°49' E 008°07'815.1
2018-Oct-14 04:30N 53°52' E 007°55'511.7
2018-Oct-14 04:03N 53°53' E 007°47'111.5
2018-Oct-14 04:00N 53°53' E 007°46'611.8
2018-Oct-14 03:30N 53°54' E 007°36'611.9
2018-Oct-14 03:00N 53°54' E 007°26'1510.1
2018-Oct-14 01:32N 53°51' E 007°01'1 7.8
2018-Oct-14 01:24N 53°50' E 006°59'3 7.9
2018-Oct-14 01:02N 53°50' E 006°54'1 8.0
2018-Oct-14 00:56N 53°49' E 006°53'4 8.3
2018-Oct-14 00:27N 53°49' E 006°46'16 8.9
2018-Oct-13 22:41N 53°45' E 006°21'2 9.0
2018-Oct-13 22:29N 53°44' E 006°18'4 9.1
2018-Oct-13 22:02N 53°43' E 006°11'1 9.1
2018-Oct-13 21:54N 53°42' E 006°10'4 9.1
2018-Oct-13 21:26N 53°41' E 006°03'4 9.0
2018-Oct-13 21:01N 53°40' E 005°57'0 9.2
2018-Oct-13 21:00N 53°40' E 005°57'5 9.0
2018-Oct-13 20:30N 53°38' E 005°49'4 9.0
2018-Oct-13 20:03N 53°37' E 005°43'0 8.9
2018-Oct-13 20:00N 53°37' E 005°42'4 8.7
2018-Oct-13 19:30N 53°36' E 005°35'4 8.5
2018-Oct-13 19:03N 53°34' E 005°29'0 8.6
2018-Oct-13 19:00N 53°34' E 005°28'4 8.4
2018-Oct-13 18:30N 53°33' E 005°22'4 8.0
2018-Oct-13 18:03N 53°32' E 005°16'0 7.7
2018-Oct-13 18:00N 53°32' E 005°15'4 7.3
2018-Oct-13 17:24N 53°30' E 005°08'2 6.9
2018-Oct-13 17:03N 53°30' E 005°04'0 6.8
2018-Oct-13 17:00N 53°29' E 005°04'3 6.7
2018-Oct-13 16:30N 53°28' E 004°59'3 6.5
2018-Oct-13 16:03N 53°27' E 004°54'0 6.5
2018-Oct-13 16:00N 53°27' E 004°54'4 6.5
2018-Oct-13 15:27N 53°25' E 004°48'3 6.3
2018-Oct-13 15:01N 53°24' E 004°45'0 6.0
2018-Oct-13 14:57N 53°24' E 004°44'2 5.6
2018-Oct-13 14:30N 53°22' E 004°41'3 6.2
2018-Oct-13 13:57N 53°19' E 004°39'3 6.3
2018-Oct-13 13:30N 53°16' E 004°37'3 6.4
2018-Oct-13 13:03N 53°13' E 004°35'0 6.5
2018-Oct-13 13:00N 53°13' E 004°35'3 6.5
2018-Oct-13 12:30N 53°10' E 004°32'3 6.4
2018-Oct-13 12:03N 53°08' E 004°30'0 6.3
2018-Oct-13 12:00N 53°07' E 004°30'3 6.4
2018-Oct-13 11:30N 53°05' E 004°27'3 6.5
2018-Oct-13 11:03N 53°02' E 004°25'0 6.5
2018-Oct-13 11:00N 53°02' E 004°25'3 6.6
2018-Oct-13 10:30N 52°59' E 004°22'510.6
2018-Oct-13 10:03N 52°55' E 004°18'111.6
2018-Oct-13 10:00N 52°54' E 004°18'611.5
2018-Oct-13 09:30N 52°49' E 004°13'511.7
2018-Oct-13 09:03N 52°46' E 004°07'111.6
2018-Oct-13 09:00N 52°45' E 004°06'611.9
2018-Oct-13 08:30N 52°41' E 003°59'512.3
2018-Oct-13 08:03N 52°37' E 003°52'112.0
2018-Oct-13 08:00N 52°37' E 003°52'612.4
2018-Oct-13 07:30N 52°32' E 003°45'612.7
2018-Oct-13 07:03N 52°28' E 003°38'112.8
2018-Oct-13 07:00N 52°28' E 003°37'612.9
2018-Oct-13 06:30N 52°23' E 003°30'612.9
2018-Oct-13 06:03N 52°19' E 003°24'112.9
2018-Oct-13 06:00N 52°18' E 003°23'613.0
2018-Oct-13 05:30N 52°14' E 003°15'613.2
2018-Oct-13 05:03N 52°10' E 003°08'113.3
2018-Oct-13 05:00N 52°09' E 003°07'713.6
2018-Oct-13 04:30N 52°04' E 002°60'613.9
2018-Oct-13 04:03N 51°60' E 002°53'114.1
2018-Oct-13 04:00N 51°59' E 002°52'714.0
2018-Oct-13 03:31N 51°54' E 002°45'614.1
2018-Oct-13 03:04N 51°49' E 002°39'114.2
2018-Oct-13 03:00N 51°48' E 002°38'714.1
2018-Oct-13 02:31N 51°43' E 002°31'613.7
2018-Oct-13 02:03N 51°38' E 002°25'113.8
2018-Oct-13 02:00N 51°37' E 002°24'713.5
2018-Oct-13 01:30N 51°32' E 002°17'613.0
2018-Oct-13 01:03N 51°27' E 002°12'112.9
2018-Oct-13 01:00N 51°27' E 002°12'612.3
2018-Oct-13 00:30N 51°21' E 002°09'511.9
2018-Oct-13 00:03N 51°16' E 002°06'111.4
2018-Oct-13 00:00N 51°15' E 002°05'611.9
2018-Oct-12 23:31N 51°12' E 001°58'511.7
2018-Oct-12 23:04N 51°09' E 001°51'111.5
2018-Oct-12 23:00N 51°08' E 001°50'510.9
2018-Oct-12 22:31N 51°05' E 001°43'510.9
2018-Oct-12 22:03N 51°02' E 001°38'110.9
2018-Oct-12 22:01N 51°01' E 001°37'510.7
2018-Oct-12 21:31N 50°57' E 001°31'510.4
2018-Oct-12 21:03N 50°54' E 001°27'110.8
2018-Oct-12 21:01N 50°53' E 001°26'611.0
2018-Oct-12 20:31N 50°48' E 001°24'511.2
2018-Oct-12 20:03N 50°43' E 001°22'111.1
2018-Oct-12 20:01N 50°43' E 001°21'510.7
2018-Oct-12 19:31N 50°39' E 001°15'511.2
2018-Oct-12 19:04N 50°35' E 001°09'111.5
2018-Oct-12 19:00N 50°35' E 001°09'511.2
2018-Oct-12 18:30N 50°31' E 001°02'511.1
2018-Oct-12 18:03N 50°30' E 000°54'111.0
2018-Oct-12 18:00N 50°30' E 000°54'611.1
2018-Oct-12 17:30N 50°29' E 000°45'511.1
2018-Oct-12 17:03N 50°28' E 000°37'111.0
2018-Oct-12 17:00N 50°27' E 000°36'611.0
2018-Oct-12 16:25N 50°26' E 000°27'510.9
2018-Oct-12 15:56N 50°24' E 000°19'2010.9
2018-Oct-12 14:03N 50°20' W 000°13'511.9
2018-Oct-12 13:40N 50°19' W 000°20'413.0
2018-Oct-12 13:22N 50°18' W 000°26'613.6
2018-Oct-12 12:55N 50°16' W 000°35'614.2
2018-Oct-12 12:30N 50°14' W 000°44'715.1
2018-Oct-12 12:03N 50°12' W 000°54'116.0
2018-Oct-12 12:00N 50°12' W 000°55'816.1
2018-Oct-12 11:30N 50°10' W 001°07'716.7
2018-Oct-12 11:03N 50°08' W 001°18'116.8
2018-Oct-12 11:01N 50°07' W 001°19'917.3
2018-Oct-12 10:31N 50°05' W 001°32'817.2
2018-Oct-12 10:04N 50°03' W 001°44'117.5
2018-Oct-12 10:00N 50°03' W 001°45'917.2
2018-Oct-12 09:30N 50°01' W 001°58'817.1
2018-Oct-12 09:03N 49°59' W 002°10'616.5
2018-Oct-12 08:40N 49°57' W 002°20'11713.5
2018-Oct-12 00:00N 49°36' W 005°18'3737311.4 180 / 351010.0 2.2 14.8 14.0
2018-Oct-11 12:00N 49°18' W 101°06'3467577.8 230 / 14998.010.8 14.5 15.0
2018-Oct-11 06:00N 49°18' W 012°30'2691224.2 270 / 17991.9 2.2 12.6 16.4
2018-Oct-10 18:00N 49°12' W 081°12'2355392.6 290 / 39975.8 2.2 12.2 15.8
2018-Oct-10 12:00N 49°24' W 021°00'   320 / 33980.8 2.2 10.6 15.0

Dump ship's entire track history